createdAt,value
2022-10-11T00:00:20.977Z,10.70
2022-10-11T00:02:50.415Z,10.60
2022-10-11T00:05:18.589Z,10.50
2022-10-11T00:07:46.525Z,10.40
2022-10-11T00:10:14.617Z,10.40
2022-10-11T00:12:42.686Z,10.30
2022-10-11T00:15:14.257Z,10.20
2022-10-11T00:17:41.967Z,10.30
2022-10-11T00:20:13.048Z,10.10
2022-10-11T00:22:41.757Z,10.00
2022-10-11T00:25:15.019Z,10.10
2022-10-11T00:27:42.957Z,10.00
2022-10-11T00:30:12.454Z,9.80
2022-10-11T00:32:40.811Z,9.80
2022-10-11T00:35:09.646Z,9.70
2022-10-11T00:37:40.617Z,9.50
2022-10-11T00:40:11.812Z,9.30
2022-10-11T00:42:39.764Z,9.20
2022-10-11T00:45:47.926Z,9.00
2022-10-11T00:48:22.896Z,8.90
2022-10-11T00:50:51.217Z,8.60
2022-10-11T00:53:20.740Z,8.50
2022-10-11T00:55:52.632Z,8.20
2022-10-11T00:58:21.587Z,8.20
2022-10-11T01:00:49.460Z,8.10
2022-10-11T01:03:21.067Z,7.90
2022-10-11T01:05:49.193Z,7.80
2022-10-11T01:08:17.250Z,7.70
2022-10-11T01:10:46.830Z,7.60
2022-10-11T01:13:26.823Z,7.60
2022-10-11T01:16:02.455Z,7.40
2022-10-11T01:18:38.951Z,7.30
2022-10-11T01:21:15.053Z,7.20
2022-10-11T01:24:31.573Z,7.20
2022-10-11T01:27:26.897Z,7.10
2022-10-11T01:30:06.449Z,6.90
2022-10-11T01:32:41.817Z,6.90
2022-10-11T01:35:17.466Z,6.90
2022-10-11T01:37:51.059Z,6.80
2022-10-11T01:40:24.189Z,6.70
2022-10-11T01:42:53.823Z,6.70
2022-10-11T01:45:22.909Z,6.50
2022-10-11T01:48:03.093Z,6.50
2022-10-11T01:50:46.421Z,6.50
2022-10-11T01:53:30.738Z,6.50
2022-10-11T01:56:11.122Z,6.40
2022-10-11T01:58:55.876Z,6.30
2022-10-11T02:01:34.368Z,6.20
2022-10-11T02:04:13.530Z,6.10
2022-10-11T02:06:52.053Z,6.00
2022-10-11T02:09:26.724Z,6.00
2022-10-11T02:11:58.170Z,6.00
2022-10-11T02:14:31.570Z,5.90
2022-10-11T02:17:04.517Z,5.90
2022-10-11T02:19:38.559Z,5.80
2022-10-11T02:22:11.254Z,5.80
2022-10-11T02:24:42.314Z,5.80
2022-10-11T02:27:12.568Z,5.70
2022-10-11T02:29:43.254Z,5.70
2022-10-11T02:32:12.615Z,5.70
2022-10-11T02:34:48.351Z,5.70
2022-10-11T02:37:21.726Z,5.60
2022-10-11T02:39:55.578Z,5.60
2022-10-11T02:42:27.003Z,5.60
2022-10-11T02:45:00.970Z,5.50
2022-10-11T02:47:30.699Z,5.50
2022-10-11T02:50:01.052Z,5.50
2022-10-11T02:52:29.283Z,5.50
2022-10-11T02:54:57.302Z,5.40
2022-10-11T02:57:25.261Z,5.40
2022-10-11T02:59:53.117Z,5.40
2022-10-11T03:02:21.453Z,5.30
2022-10-11T03:04:49.547Z,5.30
2022-10-11T03:07:18.880Z,5.30
2022-10-11T03:09:47.138Z,5.30
2022-10-11T03:12:15.159Z,5.20
2022-10-11T03:14:43.142Z,5.30
2022-10-11T03:17:34.392Z,5.20
2022-10-11T03:19:59.114Z,5.20
2022-10-11T03:22:28.656Z,5.20
2022-10-11T03:25:00.993Z,5.20
2022-10-11T03:27:31.510Z,5.20
2022-10-11T03:29:59.435Z,5.20
2022-10-11T03:32:27.690Z,5.20
2022-10-11T03:34:55.936Z,5.20
2022-10-11T03:37:24.214Z,5.20
2022-10-11T03:39:53.725Z,5.20
2022-10-11T03:42:21.905Z,5.20
2022-10-11T03:44:52.032Z,5.20
2022-10-11T03:47:20.172Z,5.20
2022-10-11T03:49:48.210Z,5.20
2022-10-11T03:52:16.251Z,5.20
2022-10-11T03:54:44.449Z,5.20
2022-10-11T03:57:13.769Z,5.20
2022-10-11T03:59:41.768Z,5.30
2022-10-11T04:02:09.870Z,5.40
2022-10-11T04:04:37.882Z,5.60
2022-10-11T04:07:05.806Z,5.60
2022-10-11T04:09:33.750Z,5.70
2022-10-11T04:12:01.711Z,5.70
2022-10-11T04:14:31.410Z,5.60
2022-10-11T04:17:00.502Z,5.60
2022-10-11T04:19:29.097Z,5.60
2022-10-11T04:21:57.270Z,5.50
2022-10-11T04:24:25.335Z,5.50
2022-10-11T04:26:53.368Z,5.40
2022-10-11T04:29:21.455Z,5.40
2022-10-11T04:31:51.250Z,5.40
2022-10-11T04:34:19.526Z,5.40
2022-10-11T04:36:50.024Z,5.40
2022-10-11T04:39:18.343Z,5.40
2022-10-11T04:41:46.433Z,5.40
2022-10-11T04:44:14.427Z,5.40
2022-10-11T04:46:42.371Z,5.40
2022-10-11T04:49:11.714Z,5.50
2022-10-11T04:51:39.609Z,5.40
2022-10-11T04:54:07.514Z,5.50
2022-10-11T04:56:35.545Z,5.50
2022-10-11T04:59:03.819Z,5.50
2022-10-11T05:01:31.799Z,5.50
2022-10-11T05:03:59.755Z,5.50
2022-10-11T05:06:29.210Z,5.60
2022-10-11T05:08:57.066Z,5.80
2022-10-11T05:11:25.038Z,5.90
2022-10-11T05:13:52.922Z,5.90
2022-10-11T05:16:20.803Z,5.90
2022-10-11T05:18:48.702Z,5.90
2022-10-11T05:21:18.993Z,6.00
2022-10-11T05:23:49.352Z,6.00
2022-10-11T05:26:17.828Z,5.90
2022-10-11T05:28:45.994Z,6.00
2022-10-11T05:31:14.257Z,6.00
2022-10-11T05:33:42.549Z,6.10
2022-10-11T05:36:10.814Z,6.10
2022-10-11T05:38:39.564Z,6.10
2022-10-11T05:41:10.245Z,6.10
2022-10-11T05:43:38.130Z,6.00
2022-10-11T05:46:07.010Z,6.10
2022-10-11T05:48:35.232Z,6.10
2022-10-11T05:51:04.248Z,6.00
2022-10-11T05:53:32.601Z,6.00
2022-10-11T05:56:00.649Z,5.90
2022-10-11T05:58:30.126Z,5.90
2022-10-11T06:00:58.398Z,5.90
2022-10-11T06:03:26.480Z,5.80
2022-10-11T06:05:57.027Z,5.80
2022-10-11T06:08:25.385Z,5.80
2022-10-11T06:10:53.339Z,5.90
2022-10-11T06:13:21.312Z,6.00
2022-10-11T06:15:50.670Z,6.10
2022-10-11T06:18:18.647Z,6.10
2022-10-11T06:20:46.620Z,6.20
2022-10-11T06:23:14.499Z,6.20
2022-10-11T06:25:42.329Z,6.30
2022-10-11T06:28:10.294Z,6.30
2022-10-11T06:30:39.952Z,6.40
2022-10-11T06:33:09.329Z,6.50
2022-10-11T06:35:37.377Z,6.60
2022-10-11T06:38:05.385Z,6.70
2022-10-11T06:40:33.437Z,6.90
2022-10-11T06:43:01.477Z,7.00
2022-10-11T06:45:29.528Z,7.20
2022-10-11T06:47:57.588Z,7.40
2022-10-11T06:50:54.488Z,7.50
2022-10-11T06:53:14.912Z,7.60
2022-10-11T06:55:42.926Z,7.70
2022-10-11T06:58:10.960Z,7.80
2022-10-11T07:00:38.987Z,7.80
2022-10-11T07:03:06.997Z,7.90
2022-10-11T07:05:36.399Z,8.10
2022-10-11T07:08:04.554Z,8.10
2022-10-11T07:10:32.581Z,8.20
2022-10-11T07:13:00.572Z,8.20
2022-10-11T07:15:28.653Z,8.30
2022-10-11T07:17:56.728Z,8.30
2022-10-11T07:20:24.660Z,8.50
2022-10-11T07:22:54.242Z,8.50
2022-10-11T07:25:22.327Z,8.60
2022-10-11T07:27:50.055Z,8.80
2022-10-11T07:30:18.244Z,8.80
2022-10-11T07:32:46.230Z,8.90
2022-10-11T07:35:14.228Z,9.00
2022-10-11T07:37:42.254Z,9.10
2022-10-11T07:40:12.357Z,9.20
2022-10-11T07:42:40.465Z,9.30
2022-10-11T07:45:09.201Z,9.40
2022-10-11T07:47:37.207Z,9.40
2022-10-11T07:50:05.706Z,9.50
2022-10-11T07:52:33.553Z,9.60
2022-10-11T07:55:01.426Z,9.70
2022-10-11T07:57:30.833Z,9.90
2022-10-11T07:59:58.791Z,10.10
2022-10-11T08:02:26.729Z,10.30
2022-10-11T08:04:54.789Z,10.50
2022-10-11T08:07:22.693Z,10.80
2022-10-11T08:09:50.755Z,11.20
2022-10-11T08:12:18.659Z,11.50
2022-10-11T08:14:48.051Z,11.70
2022-10-11T08:17:16.035Z,12.00
2022-10-11T08:19:43.850Z,12.00
2022-10-11T08:22:11.847Z,12.20
2022-10-11T08:24:39.901Z,12.50
2022-10-11T08:27:08.120Z,12.50
2022-10-11T08:33:08.708Z,12.40
2022-10-11T08:36:06.596Z,12.40
2022-10-11T08:38:36.912Z,12.70
2022-10-11T08:41:19.365Z,13.20
2022-10-11T08:44:15.701Z,13.70
2022-10-11T08:47:19.751Z,14.00
2022-10-11T08:50:03.131Z,14.10
2022-10-11T08:52:58.233Z,14.00
2022-10-11T08:55:57.957Z,14.00
2022-10-11T09:03:06.412Z,13.90
2022-10-11T09:05:55.201Z,14.20
2022-10-11T09:08:52.743Z,14.50
2022-10-11T09:12:50.306Z,14.80
2022-10-11T09:15:48.633Z,15.00
2022-10-11T09:20:52.980Z,14.50
2022-10-11T09:23:39.210Z,14.70
2022-10-11T09:26:10.875Z,14.90
2022-10-11T09:28:51.067Z,14.70
2022-10-11T09:31:19.182Z,14.60
2022-10-11T09:33:48.524Z,14.70
2022-10-11T09:36:26.563Z,14.30
2022-10-11T09:39:06.429Z,14.20
2022-10-11T09:41:39.814Z,14.20
2022-10-11T09:44:08.738Z,14.30
2022-10-11T09:46:38.803Z,14.20
2022-10-11T09:49:12.636Z,14.40
2022-10-11T09:51:44.609Z,14.40
2022-10-11T09:54:12.631Z,14.40
2022-10-11T09:56:44.863Z,14.30
2022-10-11T09:59:27.494Z,14.10
2022-10-11T10:02:22.553Z,13.90
2022-10-11T10:05:02.925Z,13.70
2022-10-11T10:07:34.343Z,13.90
2022-10-11T10:10:31.718Z,13.90
2022-10-11T10:13:01.778Z,13.80
2022-10-11T10:15:32.000Z,13.80
2022-10-11T10:18:00.707Z,13.80
2022-10-11T10:20:32.576Z,13.80
2022-10-11T10:23:04.980Z,13.90
2022-10-11T10:25:39.563Z,14.10
2022-10-11T10:28:21.299Z,14.10
2022-10-11T10:30:54.485Z,14.20
2022-10-11T10:33:23.990Z,14.20
2022-10-11T10:35:57.202Z,14.20
2022-10-11T10:38:30.306Z,14.20
2022-10-11T10:41:03.866Z,14.10
2022-10-11T10:43:36.005Z,14.10
2022-10-11T10:46:16.869Z,14.10
2022-10-11T10:51:48.902Z,14.20
2022-10-11T10:54:29.081Z,14.10
2022-10-11T10:57:00.841Z,13.90
2022-10-11T11:00:00.549Z,13.80
2022-10-11T11:02:40.772Z,13.60
2022-10-11T11:05:21.324Z,13.70
2022-10-11T11:07:55.857Z,13.70
2022-10-11T11:10:31.087Z,13.80
2022-10-11T11:13:15.959Z,13.90
2022-10-11T11:15:51.716Z,13.90
2022-10-11T11:18:29.745Z,14.00
2022-10-11T11:21:12.737Z,14.10
2022-10-11T11:23:48.565Z,14.10
2022-10-11T11:26:28.598Z,14.10
2022-10-11T11:29:12.585Z,14.20
2022-10-11T11:31:55.772Z,14.30
2022-10-11T11:34:27.627Z,14.30
2022-10-11T11:36:59.379Z,14.30
2022-10-11T11:39:31.022Z,14.10
2022-10-11T11:42:07.405Z,13.90
2022-10-11T11:44:39.672Z,13.70
2022-10-11T11:47:12.674Z,13.70
2022-10-11T11:49:46.118Z,13.90
2022-10-11T11:52:21.196Z,13.90
2022-10-11T11:54:58.046Z,14.00
2022-10-11T11:57:40.818Z,14.10
2022-10-11T12:00:15.071Z,14.20
2022-10-11T12:02:48.766Z,14.20
2022-10-11T12:05:19.545Z,14.40
2022-10-11T12:07:55.154Z,14.50
2022-10-11T12:10:31.992Z,14.40
2022-10-11T12:13:18.261Z,14.40
2022-10-11T12:16:10.917Z,14.40
2022-10-11T12:18:53.348Z,14.60
2022-10-11T12:21:30.592Z,14.90
2022-10-11T12:24:00.712Z,14.90
2022-10-11T12:26:40.951Z,14.80
2022-10-11T12:29:47.185Z,14.60
2022-10-11T12:32:52.113Z,14.60
2022-10-11T12:36:05.588Z,14.70
2022-10-11T12:38:40.212Z,14.50
2022-10-11T12:41:39.900Z,14.40
2022-10-11T12:44:14.302Z,14.30
2022-10-11T12:47:11.104Z,14.00
2022-10-11T12:49:56.981Z,13.90
2022-10-11T12:52:36.012Z,13.80
2022-10-11T12:55:41.302Z,13.70
2022-10-11T12:58:26.413Z,13.60
2022-10-11T13:01:19.789Z,13.70
2022-10-11T13:03:53.491Z,13.80
2022-10-11T13:06:25.040Z,13.90
2022-10-11T13:08:57.017Z,14.00
2022-10-11T13:11:29.097Z,14.10
2022-10-11T13:13:59.838Z,14.30
2022-10-11T13:16:30.254Z,14.40
2022-10-11T13:19:00.850Z,14.60
2022-10-11T13:21:33.221Z,14.70
2022-10-11T13:24:03.093Z,14.80
2022-10-11T13:26:32.602Z,14.80
2022-10-11T13:29:01.363Z,14.80
2022-10-11T13:31:29.806Z,14.80
2022-10-11T13:34:00.664Z,14.90
2022-10-11T13:36:29.657Z,15.00
2022-10-11T13:38:59.881Z,15.00
2022-10-11T13:41:30.556Z,15.00
2022-10-11T13:44:01.011Z,14.80
2022-10-11T13:46:31.715Z,14.80
2022-10-11T13:49:03.370Z,14.70
2022-10-11T13:51:36.278Z,14.50
2022-10-11T13:54:07.194Z,14.30
2022-10-11T13:56:43.362Z,14.20
2022-10-11T13:59:18.605Z,14.00
2022-10-11T14:01:47.703Z,13.90
2022-10-11T14:04:18.357Z,13.80
2022-10-11T14:06:49.270Z,13.70
2022-10-11T14:09:23.087Z,13.70
2022-10-11T14:11:51.675Z,13.60
2022-10-11T14:14:30.950Z,13.60
2022-10-11T14:17:00.363Z,13.60
2022-10-11T14:19:29.777Z,13.60
2022-10-11T14:21:58.148Z,13.60
2022-10-11T14:24:26.254Z,13.70
2022-10-11T14:26:57.767Z,13.80
2022-10-11T14:29:27.557Z,13.90
2022-10-11T14:32:00.290Z,14.00
2022-10-11T14:34:30.526Z,14.10
2022-10-11T14:36:58.714Z,14.10
2022-10-11T14:39:28.879Z,14.10
2022-10-11T14:41:56.998Z,14.00
2022-10-11T14:44:25.220Z,13.90
2022-10-11T14:46:54.987Z,13.80
2022-10-11T14:49:25.110Z,13.70
2022-10-11T14:51:56.028Z,13.70
2022-10-11T14:54:25.528Z,13.50
2022-10-11T14:56:55.330Z,13.50
2022-10-11T14:59:25.165Z,13.40
2022-10-11T15:01:54.168Z,13.30
2022-10-11T15:04:23.045Z,13.20
2022-10-11T15:06:51.611Z,13.20
2022-10-11T15:09:21.682Z,13.20
2022-10-11T15:11:50.976Z,13.20
2022-10-11T15:14:19.209Z,13.10
2022-10-11T15:16:47.338Z,13.00
2022-10-11T15:19:17.284Z,12.90
2022-10-11T15:21:45.777Z,12.80
2022-10-11T15:24:13.884Z,12.70
2022-10-11T15:26:45.149Z,12.60
2022-10-11T15:29:13.546Z,12.50
2022-10-11T15:31:41.431Z,12.40
2022-10-11T15:34:09.352Z,12.20
2022-10-11T15:36:37.217Z,12.10
2022-10-11T15:39:05.334Z,11.90
2022-10-11T15:41:33.460Z,11.80
2022-10-11T15:44:02.812Z,11.60
2022-10-11T15:46:30.889Z,11.50
2022-10-11T15:49:00.462Z,11.40
2022-10-11T15:51:31.277Z,11.20
2022-10-11T15:53:59.179Z,11.10
2022-10-11T15:56:31.543Z,10.90
2022-10-11T15:59:03.001Z,10.70
2022-10-11T16:01:31.081Z,10.60
2022-10-11T16:03:59.076Z,10.50
2022-10-11T16:06:28.016Z,10.40
2022-10-11T16:08:55.970Z,10.20
2022-10-11T16:11:24.036Z,10.10
2022-10-11T16:13:52.009Z,10.00
2022-10-11T16:16:21.398Z,9.90
2022-10-11T16:18:51.212Z,9.80
2022-10-11T16:21:20.885Z,9.60
2022-10-11T16:23:48.833Z,9.50
2022-10-11T16:26:17.450Z,9.40
2022-10-11T16:28:45.409Z,9.30
2022-10-11T16:31:18.040Z,9.20
2022-10-11T16:33:47.842Z,9.10
2022-10-11T16:36:34.567Z,9.00
2022-10-11T16:39:05.696Z,8.90
2022-10-11T16:41:33.882Z,8.70
2022-10-11T16:44:01.880Z,8.70
2022-10-11T16:46:30.272Z,8.50
2022-10-11T16:48:59.976Z,8.40
2022-10-11T16:51:28.091Z,8.40
2022-10-11T16:53:56.013Z,8.30
2022-10-11T16:56:25.063Z,8.20
2022-10-11T16:58:53.774Z,8.10
2022-10-11T17:01:22.141Z,8.00
2022-10-11T17:03:50.526Z,7.90
2022-10-11T17:06:20.991Z,7.90
2022-10-11T17:08:48.976Z,7.80
2022-10-11T17:11:17.846Z,7.70
2022-10-11T17:13:45.984Z,7.70
2022-10-11T17:16:13.937Z,7.60
2022-10-11T17:18:41.853Z,7.50
2022-10-11T17:21:12.821Z,7.40
2022-10-11T17:23:42.913Z,7.30
2022-10-11T17:26:15.279Z,7.30
2022-10-11T17:28:43.241Z,7.20
2022-10-11T17:31:11.344Z,7.10
2022-10-11T17:33:39.543Z,7.10
2022-10-11T17:36:15.839Z,7.00
2022-10-11T17:38:45.297Z,7.00
2022-10-11T17:41:13.326Z,6.90
2022-10-11T17:43:41.638Z,6.90
2022-10-11T17:46:10.042Z,6.80
2022-10-11T17:48:39.372Z,6.80
2022-10-11T17:51:09.639Z,6.70
2022-10-11T17:53:38.158Z,6.70
2022-10-11T17:56:16.327Z,6.60
2022-10-11T17:58:45.162Z,6.60
2022-10-11T18:01:16.502Z,6.50
2022-10-11T18:03:44.892Z,6.50
2022-10-11T18:06:14.725Z,6.40
2022-10-11T18:08:42.939Z,6.40
2022-10-11T18:11:13.642Z,6.40
2022-10-11T18:13:45.938Z,6.30
2022-10-11T18:16:14.777Z,6.30
2022-10-11T18:18:43.480Z,6.30
2022-10-11T18:21:11.865Z,6.20
2022-10-11T18:23:40.110Z,6.20
2022-10-11T18:26:15.071Z,6.10
2022-10-11T18:28:43.625Z,6.10
2022-10-11T18:31:14.477Z,6.00
2022-10-11T18:33:45.527Z,6.00
2022-10-11T18:36:14.849Z,6.00
2022-10-11T18:38:46.506Z,6.00
2022-10-11T18:41:18.940Z,5.90
2022-10-11T18:43:51.672Z,5.80
2022-10-11T18:46:23.584Z,5.80
2022-10-11T18:48:54.906Z,5.70
2022-10-11T18:51:25.167Z,5.70
2022-10-11T18:53:54.072Z,5.70
2022-10-11T18:56:24.844Z,5.70
2022-10-11T18:58:55.253Z,5.60
2022-10-11T19:01:25.334Z,5.60
2022-10-11T19:03:56.629Z,5.60
2022-10-11T19:06:26.380Z,5.60
2022-10-11T19:08:56.133Z,5.50
2022-10-11T19:11:26.156Z,5.50
2022-10-11T19:13:58.107Z,5.40
2022-10-11T19:16:27.315Z,5.40
2022-10-11T19:18:55.611Z,5.40
2022-10-11T19:21:24.038Z,5.30
2022-10-11T19:23:52.743Z,5.30
2022-10-11T19:26:22.816Z,5.20
2022-10-11T19:28:56.625Z,5.20
2022-10-11T19:31:24.897Z,5.10
2022-10-11T19:33:58.114Z,5.10
2022-10-11T19:36:26.825Z,5.00
2022-10-11T19:38:56.867Z,5.00
2022-10-11T19:41:25.808Z,5.00
2022-10-11T19:43:58.107Z,4.90
2022-10-11T19:49:17.629Z,4.80
2022-10-11T19:51:45.718Z,4.80
2022-10-11T19:54:15.171Z,4.70
2022-10-11T19:56:44.623Z,4.70
2022-10-11T19:59:14.879Z,4.70
2022-10-11T20:01:46.626Z,4.60
2022-10-11T20:04:39.687Z,4.60
2022-10-11T20:07:06.087Z,4.60
2022-10-11T20:09:34.011Z,4.50
2022-10-11T20:12:01.928Z,4.50
2022-10-11T20:14:31.278Z,4.50
2022-10-11T20:16:59.234Z,4.40
2022-10-11T20:19:31.056Z,4.40
2022-10-11T20:22:00.155Z,4.40
2022-10-11T20:24:33.134Z,4.30
2022-10-11T20:27:02.370Z,4.30
2022-10-11T20:29:31.712Z,4.20
2022-10-11T20:31:59.929Z,4.20
2022-10-11T20:34:28.915Z,4.20
2022-10-11T20:36:57.110Z,4.20
2022-10-11T20:39:25.457Z,4.10
2022-10-11T20:41:53.507Z,4.10
2022-10-11T20:44:21.443Z,4.10
2022-10-11T20:46:50.704Z,4.00
2022-10-11T20:49:19.927Z,4.00
2022-10-11T20:51:48.196Z,4.00
2022-10-11T20:54:16.609Z,3.90
2022-10-11T20:56:44.633Z,3.90
2022-10-11T20:59:12.596Z,3.90
2022-10-11T21:01:41.794Z,3.80
2022-10-11T21:04:18.459Z,3.80
2022-10-11T21:06:46.914Z,3.80
2022-10-11T21:09:16.676Z,3.80
2022-10-11T21:11:46.100Z,3.70
2022-10-11T21:14:14.333Z,3.70
2022-10-11T21:16:42.525Z,3.60
2022-10-11T21:19:15.908Z,3.60
2022-10-11T21:21:50.947Z,3.60
2022-10-11T21:24:21.665Z,3.60
2022-10-11T21:26:49.552Z,3.60
2022-10-11T21:29:18.141Z,3.50
2022-10-11T21:31:46.256Z,3.50
2022-10-11T21:34:15.909Z,3.50
2022-10-11T21:36:44.447Z,3.50
2022-10-11T21:39:12.369Z,3.50
2022-10-11T21:41:42.298Z,3.30
2022-10-11T21:44:10.361Z,3.30
2022-10-11T21:49:27.758Z,3.30
2022-10-11T21:51:55.712Z,3.30
2022-10-11T21:54:23.801Z,3.20
2022-10-11T21:56:51.905Z,3.20
2022-10-11T21:59:20.368Z,3.20
2022-10-11T22:01:48.491Z,3.10
2022-10-11T22:04:16.535Z,3.10
2022-10-11T22:06:45.838Z,3.10
2022-10-11T22:09:14.343Z,3.10
2022-10-11T22:11:42.378Z,3.00
2022-10-11T22:14:10.420Z,3.00
2022-10-11T22:16:38.590Z,3.00
2022-10-11T22:19:06.605Z,3.00
2022-10-11T22:21:34.659Z,2.90
2022-10-11T22:24:04.130Z,2.90
2022-10-11T22:26:35.754Z,2.90
2022-10-11T22:29:03.823Z,2.90
2022-10-11T22:31:31.962Z,2.80
2022-10-11T22:34:01.545Z,2.80
2022-10-11T22:36:31.098Z,2.80
2022-10-11T22:38:59.120Z,2.80
2022-10-11T22:41:28.484Z,2.70
2022-10-11T22:43:56.942Z,2.70
2022-10-11T22:46:25.251Z,2.70
2022-10-11T22:48:53.232Z,2.70
2022-10-11T22:51:21.209Z,2.60
2022-10-11T22:53:49.585Z,2.60
2022-10-11T22:56:17.660Z,2.60
2022-10-11T22:58:46.957Z,2.60
2022-10-11T23:01:16.105Z,2.50
2022-10-11T23:03:44.422Z,2.50
2022-10-11T23:06:12.670Z,2.50
2022-10-11T23:08:40.809Z,2.50
2022-10-11T23:11:09.159Z,2.50
2022-10-11T23:13:37.617Z,2.50
2022-10-11T23:16:12.504Z,2.40
2022-10-11T23:18:41.183Z,2.40
2022-10-11T23:21:09.767Z,2.40
2022-10-11T23:23:39.964Z,2.40
2022-10-11T23:26:10.161Z,2.40
2022-10-11T23:28:38.548Z,2.40
2022-10-11T23:31:13.007Z,2.40
2022-10-11T23:33:41.119Z,2.30
2022-10-11T23:36:15.171Z,2.30
2022-10-11T23:38:43.514Z,2.30
2022-10-11T23:41:12.157Z,2.20
2022-10-11T23:43:40.053Z,2.20
2022-10-11T23:46:08.187Z,2.20
2022-10-11T23:48:37.460Z,2.20
2022-10-11T23:51:05.684Z,2.20
2022-10-11T23:53:33.772Z,2.20
2022-10-11T23:56:01.767Z,2.10
2022-10-11T23:58:30.240Z,2.10
